createdAt,value
2019-01-30T00:00:32.529Z,21.27
2019-01-30T00:03:01.165Z,16.43
2019-01-30T00:05:29.738Z,21.40
2019-01-30T00:07:58.093Z,19.93
2019-01-30T00:10:26.480Z,19.93
2019-01-30T00:12:54.854Z,23.20
2019-01-30T00:15:23.239Z,20.10
2019-01-30T00:17:51.673Z,20.10
2019-01-30T00:20:20.068Z,20.83
2019-01-30T00:22:48.465Z,26.27
2019-01-30T00:25:16.895Z,20.23
2019-01-30T00:27:45.379Z,27.53
2019-01-30T00:30:25.673Z,17.40
2019-01-30T00:32:54.232Z,17.77
2019-01-30T00:35:22.614Z,19.10
2019-01-30T00:37:50.990Z,21.60
2019-01-30T00:40:21.416Z,24.83
2019-01-30T00:42:49.865Z,20.97
2019-01-30T00:45:21.720Z,24.67
2019-01-30T00:47:50.258Z,21.67
2019-01-30T00:50:21.252Z,15.33
2019-01-30T00:52:49.629Z,20.73
2019-01-30T00:55:18.089Z,20.93
2019-01-30T00:57:46.466Z,16.30
2019-01-30T01:00:17.792Z,20.70
2019-01-30T01:02:46.408Z,23.17
2019-01-30T01:05:16.535Z,24.40
2019-01-30T01:07:45.253Z,19.07
2019-01-30T01:10:16.500Z,25.90
2019-01-30T01:12:45.147Z,17.97
2019-01-30T01:15:15.572Z,18.53
2019-01-30T01:17:44.417Z,18.93
2019-01-30T01:20:15.236Z,15.13
2019-01-30T01:22:43.959Z,15.97
2019-01-30T01:25:52.253Z,24.10
2019-01-30T01:28:20.631Z,19.50
2019-01-30T01:30:49.020Z,19.57
2019-01-30T01:33:17.396Z,17.50
2019-01-30T01:35:45.782Z,26.50
2019-01-30T01:38:33.409Z,20.40
2019-01-30T01:43:55.776Z,18.27
2019-01-30T01:46:24.165Z,22.30
2019-01-30T01:49:11.656Z,23.67
2019-01-30T01:51:40.048Z,27.97
2019-01-30T01:54:08.428Z,21.67
2019-01-30T01:56:55.948Z,21.93
2019-01-30T01:59:24.324Z,26.97
2019-01-30T02:02:11.963Z,25.27
2019-01-30T02:04:40.352Z,22.17
2019-01-30T02:07:27.987Z,23.73
2019-01-30T02:13:23.724Z,18.80
2019-01-30T02:15:52.100Z,18.70
2019-01-30T02:20:54.953Z,19.63
2019-01-30T02:23:42.584Z,20.17
2019-01-30T02:26:10.971Z,25.20
2019-01-30T02:28:39.350Z,28.13
2019-01-30T02:33:55.176Z,12.70
2019-01-30T02:37:01.939Z,22.40
2019-01-30T02:39:30.312Z,16.50
2019-01-30T02:42:17.941Z,15.97
2019-01-30T02:44:46.310Z,25.20
2019-01-30T02:49:48.696Z,17.77
2019-01-30T02:52:17.085Z,12.93
2019-01-30T02:55:04.705Z,15.07
2019-01-30T02:57:52.332Z,15.43
2019-01-30T03:01:00.618Z,21.00
2019-01-30T03:03:48.117Z,16.57
2019-01-30T03:06:16.490Z,14.70
2019-01-30T03:09:04.118Z,14.63
2019-01-30T03:11:51.740Z,20.30
2019-01-30T03:14:20.121Z,18.20
2019-01-30T03:16:48.492Z,10.43
2019-01-30T03:19:36.002Z,15.90
2019-01-30T03:22:04.377Z,16.37
2019-01-30T03:24:51.874Z,12.93
2019-01-30T03:27:20.245Z,14.47
2019-01-30T03:30:07.744Z,13.23
2019-01-30T03:32:36.117Z,15.40
2019-01-30T03:35:44.407Z,15.40
2019-01-30T03:38:12.792Z,12.80
2019-01-30T03:41:00.285Z,15.10
2019-01-30T03:43:28.665Z,18.70
2019-01-30T03:46:16.381Z,21.53
2019-01-30T03:49:04.176Z,14.67
2019-01-30T03:51:32.550Z,22.20
2019-01-30T03:56:57.247Z,17.50
2019-01-30T03:59:25.658Z,18.23
2019-01-30T04:01:54.013Z,15.80
2019-01-30T04:04:22.393Z,15.30
2019-01-30T04:07:10.102Z,12.93
2019-01-30T04:09:57.809Z,14.63
2019-01-30T04:12:26.186Z,11.90
2019-01-30T04:15:14.099Z,11.87
2019-01-30T04:17:42.459Z,12.53
2019-01-30T04:20:50.746Z,16.30
2019-01-30T04:23:38.249Z,12.37
2019-01-30T04:26:25.735Z,12.30
2019-01-30T04:28:54.123Z,17.47
2019-01-30T04:31:22.496Z,15.63
2019-01-30T04:33:50.879Z,12.20
2019-01-30T04:36:38.368Z,16.60
2019-01-30T04:39:46.663Z,15.20
2019-01-30T04:42:15.030Z,16.93
2019-01-30T04:45:02.660Z,13.83
2019-01-30T04:47:31.035Z,18.73
2019-01-30T04:50:18.771Z,14.83
2019-01-30T04:52:47.115Z,13.97
2019-01-30T04:55:34.842Z,15.17
2019-01-30T04:58:03.221Z,12.03
2019-01-30T05:00:31.608Z,10.53
2019-01-30T05:03:19.099Z,15.40
2019-01-30T05:05:47.478Z,19.53
2019-01-30T05:08:15.853Z,12.47
2019-01-30T05:10:44.243Z,14.30
2019-01-30T05:13:31.720Z,11.47
2019-01-30T05:16:00.101Z,8.37
2019-01-30T05:21:15.922Z,7.87
2019-01-30T05:23:44.302Z,15.37
2019-01-30T05:26:31.798Z,12.83
2019-01-30T05:29:00.267Z,10.13
2019-01-30T05:31:28.644Z,16.80
2019-01-30T05:36:44.465Z,13.90
2019-01-30T05:39:12.841Z,16.00
2019-01-30T05:41:41.218Z,16.20
2019-01-30T05:46:57.037Z,17.67
2019-01-30T05:49:44.524Z,12.40
2019-01-30T05:52:12.905Z,12.10
2019-01-30T05:55:00.528Z,15.70
2019-01-30T05:57:28.909Z,12.70
2019-01-30T05:59:57.287Z,11.80
2019-01-30T06:02:25.670Z,11.90
2019-01-30T06:05:13.173Z,13.33
2019-01-30T06:08:00.662Z,13.57
2019-01-30T06:10:48.376Z,16.70
2019-01-30T06:13:35.863Z,11.27
2019-01-30T06:18:59.052Z,22.20
2019-01-30T06:21:27.434Z,14.40
2019-01-30T06:24:15.525Z,15.47
2019-01-30T06:26:47.604Z,16.90
2019-01-30T06:29:17.557Z,12.80
2019-01-30T06:31:46.112Z,18.70
2019-01-30T06:34:16.189Z,13.27
2019-01-30T06:36:47.610Z,19.43
2019-01-30T06:39:21.527Z,12.27
2019-01-30T06:41:53.117Z,17.37
2019-01-30T06:44:24.857Z,13.43
2019-01-30T06:46:51.652Z,15.20
2019-01-30T06:49:21.788Z,17.93
2019-01-30T06:51:51.766Z,22.43
2019-01-30T06:54:24.932Z,21.60
2019-01-30T06:56:53.636Z,16.00
2019-01-30T06:59:22.120Z,19.63
2019-01-30T07:01:52.387Z,14.20
2019-01-30T07:04:22.250Z,12.70
2019-01-30T07:10:00.386Z,16.90
2019-01-30T07:12:31.230Z,16.83
2019-01-30T07:15:01.879Z,18.37
2019-01-30T07:17:32.594Z,15.03
2019-01-30T07:20:08.393Z,18.00
2019-01-30T07:22:40.728Z,16.70
2019-01-30T07:25:12.464Z,17.73
2019-01-30T07:27:45.030Z,26.43
2019-01-30T07:30:20.938Z,17.97
2019-01-30T07:32:51.175Z,24.00
2019-01-30T07:35:21.890Z,17.77
2019-01-30T07:38:00.250Z,18.73
2019-01-30T07:40:33.289Z,16.87
2019-01-30T07:43:01.909Z,20.03
2019-01-30T07:45:32.428Z,18.97
2019-01-30T07:48:07.202Z,15.77
2019-01-30T07:50:36.491Z,20.17
2019-01-30T07:53:11.260Z,12.10
2019-01-30T07:55:39.857Z,15.60
2019-01-30T07:58:14.781Z,15.40
2019-01-30T08:00:45.605Z,16.90
2019-01-30T08:03:17.493Z,20.90
2019-01-30T08:05:50.353Z,12.80
2019-01-30T08:08:19.796Z,20.33
2019-01-30T08:10:52.818Z,21.13
2019-01-30T08:13:21.451Z,17.23
2019-01-30T08:15:51.688Z,23.60
2019-01-30T08:18:20.189Z,14.57
2019-01-30T08:20:50.373Z,10.97
2019-01-30T08:23:18.837Z,12.90
2019-01-30T08:25:47.699Z,16.47
2019-01-30T08:28:16.598Z,13.03
2019-01-30T08:30:45.328Z,15.80
2019-01-30T08:33:13.855Z,15.00
2019-01-30T08:35:43.358Z,17.63
2019-01-30T08:38:11.952Z,13.30
2019-01-30T08:40:40.605Z,15.00
2019-01-30T08:43:09.976Z,12.80
2019-01-30T08:45:38.684Z,12.90
2019-01-30T08:48:07.398Z,13.37
2019-01-30T08:50:35.907Z,14.10
2019-01-30T08:53:04.418Z,13.50
2019-01-30T08:55:32.975Z,13.10
2019-01-30T08:58:01.487Z,14.57
2019-01-30T09:00:30.813Z,11.53
2019-01-30T09:02:59.308Z,18.50
2019-01-30T09:05:28.076Z,15.40
2019-01-30T09:07:56.578Z,12.93
2019-01-30T09:10:29.796Z,15.10
2019-01-30T09:12:58.378Z,15.50
2019-01-30T09:15:30.701Z,11.33
2019-01-30T09:17:59.320Z,9.50
2019-01-30T09:20:28.076Z,13.83
2019-01-30T09:22:57.079Z,14.00
2019-01-30T09:25:30.074Z,12.57
2019-01-30T09:27:59.818Z,17.10
2019-01-30T09:30:30.531Z,13.10
2019-01-30T09:32:59.060Z,13.27
2019-01-30T09:35:27.584Z,10.70
2019-01-30T09:37:56.186Z,15.40
2019-01-30T09:40:25.091Z,17.87
2019-01-30T09:42:54.131Z,11.40
2019-01-30T09:45:23.774Z,12.80
2019-01-30T09:47:52.272Z,14.83
2019-01-30T09:50:23.065Z,11.63
2019-01-30T09:52:52.677Z,15.83
2019-01-30T09:55:21.185Z,11.93
2019-01-30T09:57:49.960Z,11.77
2019-01-30T10:00:20.610Z,16.37
2019-01-30T10:02:49.094Z,15.53
2019-01-30T10:05:17.859Z,11.20
2019-01-30T10:07:46.703Z,11.70
2019-01-30T10:10:26.574Z,12.20
2019-01-30T10:12:55.115Z,10.00
2019-01-30T10:15:28.985Z,14.50
2019-01-30T10:17:57.577Z,11.43
2019-01-30T10:20:33.027Z,12.60
2019-01-30T10:23:04.192Z,13.20
2019-01-30T10:25:35.701Z,10.23
2019-01-30T10:28:16.809Z,5.57
2019-01-30T10:30:50.176Z,9.70
2019-01-30T10:33:58.454Z,13.60
2019-01-30T10:36:46.077Z,12.00
2019-01-30T10:39:14.451Z,7.43
2019-01-30T10:42:02.096Z,14.43
2019-01-30T10:44:49.726Z,11.83
2019-01-30T10:47:37.356Z,13.60
2019-01-30T10:50:45.646Z,11.93
2019-01-30T10:53:33.358Z,17.87
2019-01-30T10:58:49.180Z,10.53
2019-01-30T11:01:17.549Z,8.00
2019-01-30T11:03:45.919Z,9.97
2019-01-30T11:06:33.657Z,8.53
2019-01-30T11:09:02.019Z,9.60
2019-01-30T11:11:49.644Z,10.30
2019-01-30T11:14:18.015Z,6.73
2019-01-30T11:16:46.397Z,14.30
2019-01-30T11:19:14.767Z,11.83
2019-01-30T11:21:50.748Z,12.90
2019-01-30T11:24:19.116Z,7.73
2019-01-30T11:26:47.484Z,10.00
2019-01-30T11:29:15.867Z,12.00
2019-01-30T11:31:44.234Z,9.77
2019-01-30T11:34:12.615Z,10.43
2019-01-30T11:36:40.984Z,14.70
2019-01-30T11:39:09.520Z,8.93
2019-01-30T11:41:37.887Z,7.83
2019-01-30T11:44:06.262Z,7.53
2019-01-30T11:46:34.631Z,5.70
2019-01-30T11:49:03.005Z,7.40
2019-01-30T11:51:31.371Z,7.70
2019-01-30T11:53:59.769Z,8.70
2019-01-30T11:56:28.178Z,11.43
2019-01-30T11:58:56.573Z,6.63
2019-01-30T12:01:24.959Z,9.17
2019-01-30T12:03:53.333Z,8.57
2019-01-30T12:06:21.731Z,13.67
2019-01-30T12:08:50.123Z,5.20
2019-01-30T12:11:18.493Z,5.30
2019-01-30T12:13:46.879Z,6.07
2019-01-30T12:16:15.258Z,8.10
2019-01-30T12:18:43.655Z,8.60
2019-01-30T12:21:12.035Z,11.67
2019-01-30T12:23:40.421Z,7.00
2019-01-30T12:26:08.808Z,14.60
2019-01-30T12:28:37.246Z,6.77
2019-01-30T12:31:05.628Z,13.47
2019-01-30T12:33:34.025Z,7.47
2019-01-30T12:36:02.418Z,4.33
2019-01-30T12:38:30.814Z,8.70
2019-01-30T12:40:59.202Z,6.73
2019-01-30T12:43:27.648Z,4.67
2019-01-30T12:45:56.035Z,7.87
2019-01-30T12:48:24.412Z,5.37
2019-01-30T12:50:52.809Z,7.40
2019-01-30T12:53:21.186Z,6.27
2019-01-30T12:55:49.581Z,5.60
2019-01-30T12:58:17.974Z,7.17
2019-01-30T13:00:46.743Z,6.87
2019-01-30T13:03:15.239Z,5.70
2019-01-30T13:05:43.613Z,4.20
2019-01-30T13:08:11.988Z,5.70
2019-01-30T13:10:40.416Z,6.63
2019-01-30T13:13:08.811Z,6.23
2019-01-30T13:15:37.472Z,5.70
2019-01-30T13:18:17.466Z,6.13
2019-01-30T13:20:36.363Z,5.07
2019-01-30T13:23:04.836Z,6.70
2019-01-30T13:25:33.488Z,8.30
2019-01-30T13:28:01.867Z,7.77
2019-01-30T13:30:32.768Z,4.37
2019-01-30T13:33:01.519Z,5.80
2019-01-30T13:35:30.015Z,4.37
2019-01-30T13:37:58.400Z,5.77
2019-01-30T13:40:29.576Z,7.30
2019-01-30T13:42:58.156Z,9.27
2019-01-30T13:45:27.314Z,8.23
2019-01-30T13:47:56.039Z,6.80
2019-01-30T13:50:26.354Z,3.77
2019-01-30T13:52:54.757Z,4.57
2019-01-30T13:55:23.449Z,6.27
2019-01-30T13:57:51.829Z,10.30
2019-01-30T14:00:28.899Z,3.63
2019-01-30T14:02:57.283Z,7.90
2019-01-30T14:05:25.654Z,8.53
2019-01-30T14:07:54.452Z,6.53
2019-01-30T14:10:23.091Z,6.87
2019-01-30T14:12:51.961Z,10.20
2019-01-30T14:15:25.759Z,6.20
2019-01-30T14:17:54.152Z,5.43
2019-01-30T14:20:22.585Z,4.80
2019-01-30T14:22:51.037Z,6.77
2019-01-30T14:25:19.489Z,8.97
2019-01-30T14:27:47.974Z,9.27
2019-01-30T14:30:28.318Z,7.63
2019-01-30T14:32:56.677Z,5.53
2019-01-30T14:35:26.504Z,5.30
2019-01-30T14:37:54.907Z,5.20
2019-01-30T14:40:23.707Z,8.83
2019-01-30T14:42:52.265Z,7.97
2019-01-30T14:45:21.485Z,4.30
2019-01-30T14:47:51.201Z,4.10
2019-01-30T14:50:27.148Z,5.00
2019-01-30T14:52:55.821Z,14.80
2019-01-30T14:55:24.653Z,4.43
2019-01-30T14:57:54.265Z,7.73
2019-01-30T15:00:28.585Z,12.83
2019-01-30T15:02:57.076Z,6.30
2019-01-30T15:05:26.642Z,3.57
2019-01-30T15:07:55.126Z,7.00
2019-01-30T15:10:25.411Z,9.03
2019-01-30T15:12:54.121Z,5.00
2019-01-30T15:15:27.362Z,8.20
2019-01-30T15:17:55.701Z,8.03
2019-01-30T15:20:29.435Z,8.60
2019-01-30T15:22:57.948Z,9.17
2019-01-30T15:25:27.180Z,7.23
2019-01-30T15:27:56.102Z,5.67
2019-01-30T15:30:30.135Z,5.97
2019-01-30T15:32:58.511Z,9.00
2019-01-30T15:35:33.626Z,11.50
2019-01-30T15:37:56.986Z,5.70
2019-01-30T15:40:30.258Z,8.10
2019-01-30T15:42:58.636Z,7.03
2019-01-30T15:45:27.072Z,13.60
2019-01-30T15:47:55.451Z,9.93
2019-01-30T15:50:26.265Z,8.30
2019-01-30T15:52:55.478Z,9.47
2019-01-30T15:55:23.853Z,13.10
2019-01-30T15:57:55.205Z,8.70
2019-01-30T16:00:29.610Z,7.23
2019-01-30T16:02:57.964Z,12.43
2019-01-30T16:05:26.379Z,6.90
2019-01-30T16:07:54.759Z,6.23
2019-01-30T16:10:23.146Z,8.73
2019-01-30T16:12:51.633Z,11.40
2019-01-30T16:15:23.386Z,17.90
2019-01-30T16:17:51.882Z,11.57
2019-01-30T16:20:20.416Z,6.73
2019-01-30T16:22:48.932Z,10.90
2019-01-30T16:25:19.051Z,22.33
2019-01-30T16:27:47.636Z,14.77
2019-01-30T16:30:21.323Z,19.83
2019-01-30T16:32:49.702Z,9.97
2019-01-30T16:35:21.308Z,7.97
2019-01-30T16:37:49.766Z,14.37
2019-01-30T16:40:18.531Z,10.30
2019-01-30T16:42:46.887Z,8.57
2019-01-30T16:45:18.306Z,8.83
2019-01-30T16:47:46.685Z,12.77
2019-01-30T16:50:16.697Z,15.87
2019-01-30T16:52:45.239Z,8.33
2019-01-30T16:55:16.756Z,14.33
2019-01-30T16:57:45.466Z,12.47
2019-01-30T17:00:25.823Z,6.87
2019-01-30T17:02:54.616Z,11.83
2019-01-30T17:05:23.272Z,19.53
2019-01-30T17:07:51.811Z,12.00
2019-01-30T17:10:20.426Z,9.50
2019-01-30T17:12:48.795Z,11.23
2019-01-30T17:15:28.914Z,9.40
2019-01-30T17:17:57.278Z,7.13
2019-01-30T17:20:27.884Z,9.43
2019-01-30T17:22:56.253Z,8.10
2019-01-30T17:26:04.541Z,9.57
2019-01-30T17:31:46.664Z,16.07
2019-01-30T17:34:34.294Z,17.13
2019-01-30T17:37:02.662Z,11.27
2019-01-30T17:39:31.047Z,10.97
2019-01-30T17:45:44.572Z,7.17
2019-01-30T17:48:52.875Z,8.73
2019-01-30T17:51:21.315Z,10.40
2019-01-30T17:54:08.815Z,15.73
2019-01-30T17:56:56.432Z,14.93
2019-01-30T18:01:59.187Z,15.27
2019-01-30T18:04:46.913Z,15.53
2019-01-30T18:07:15.286Z,21.57
2019-01-30T18:10:02.786Z,12.70
2019-01-30T18:15:18.593Z,11.60
2019-01-30T18:17:46.969Z,11.50
2019-01-30T18:20:55.256Z,13.60
2019-01-30T18:23:42.744Z,18.93
2019-01-30T18:26:11.116Z,6.53
2019-01-30T18:28:39.484Z,18.90
2019-01-30T18:31:26.984Z,12.00
2019-01-30T18:33:55.390Z,13.20
2019-01-30T18:36:23.772Z,11.27
2019-01-30T18:41:39.587Z,14.33
2019-01-30T18:47:20.379Z,15.17
2019-01-30T18:50:08.026Z,10.13
2019-01-30T18:52:36.401Z,9.97
2019-01-30T18:55:44.697Z,10.77
2019-01-30T18:58:13.067Z,10.70
2019-01-30T19:01:21.369Z,15.40
2019-01-30T19:04:08.855Z,19.73
2019-01-30T19:06:37.234Z,14.67
2019-01-30T19:09:45.523Z,9.43
2019-01-30T19:12:13.899Z,12.63
2019-01-30T19:15:01.381Z,15.27
2019-01-30T19:17:29.789Z,10.77
2019-01-30T19:19:58.176Z,11.13
2019-01-30T19:22:26.573Z,13.50
2019-01-30T19:28:01.627Z,10.70
2019-01-30T19:31:09.924Z,12.77
2019-01-30T19:33:57.408Z,18.50
2019-01-30T19:36:25.790Z,11.77
2019-01-30T19:39:13.282Z,11.70
2019-01-30T19:42:00.822Z,8.70
2019-01-30T19:44:48.506Z,14.73
2019-01-30T19:47:36.135Z,10.17
2019-01-30T19:50:44.425Z,9.43
2019-01-30T19:53:12.813Z,13.77
2019-01-30T19:55:41.300Z,12.97
2019-01-30T19:58:12.155Z,11.60
2019-01-30T20:01:19.696Z,12.87
2019-01-30T20:03:48.070Z,10.23
2019-01-30T20:06:16.524Z,15.40
2019-01-30T20:08:44.915Z,12.93
2019-01-30T20:11:13.366Z,11.20
2019-01-30T20:14:01.043Z,10.77
2019-01-30T20:16:48.735Z,9.10
2019-01-30T20:19:36.457Z,9.90
2019-01-30T20:22:44.747Z,15.43
2019-01-30T20:25:53.138Z,16.87
2019-01-30T20:28:21.592Z,11.20
2019-01-30T20:30:49.964Z,18.87
2019-01-30T20:33:37.749Z,11.30
2019-01-30T20:36:46.040Z,14.37
2019-01-30T20:39:33.604Z,12.27
2019-01-30T20:42:21.234Z,17.13
2019-01-30T20:47:56.189Z,13.27
2019-01-30T20:50:43.906Z,16.33
2019-01-30T20:53:31.535Z,10.60
2019-01-30T20:55:59.940Z,11.10
2019-01-30T20:58:47.434Z,11.97
2019-01-30T21:04:03.246Z,12.63
2019-01-30T21:06:31.675Z,13.20
2019-01-30T21:09:00.048Z,13.90
2019-01-30T21:11:28.424Z,15.30
2019-01-30T21:13:56.805Z,10.57
2019-01-30T21:16:25.171Z,11.57
2019-01-30T21:18:53.550Z,12.33
2019-01-30T21:21:41.176Z,12.40
2019-01-30T21:24:09.584Z,15.10
2019-01-30T21:26:37.961Z,18.70
2019-01-30T21:31:59.512Z,20.27
2019-01-30T21:34:47.187Z,18.63
2019-01-30T21:37:34.681Z,13.90
2019-01-30T21:40:42.967Z,13.93
2019-01-30T21:43:11.350Z,17.63
2019-01-30T21:51:20.246Z,16.90
2019-01-30T21:54:07.990Z,19.53
2019-01-30T21:56:57.214Z,13.70
2019-01-30T21:59:25.611Z,16.73
2019-01-30T22:02:13.317Z,18.47
2019-01-30T22:05:00.816Z,18.30
2019-01-30T22:08:00.044Z,20.93
2019-01-30T22:10:37.770Z,18.50
2019-01-30T22:13:06.159Z,19.80
2019-01-30T22:15:53.782Z,19.50
2019-01-30T22:18:22.177Z,21.40
2019-01-30T22:20:50.559Z,20.37
2019-01-30T22:23:18.951Z,20.20
2019-01-30T22:26:06.679Z,22.10
2019-01-30T22:28:54.314Z,22.20
2019-01-30T22:31:41.936Z,22.53
2019-01-30T22:34:13.293Z,23.47
2019-01-30T22:36:59.531Z,25.87
2019-01-30T22:39:47.164Z,24.63
2019-01-30T22:42:34.860Z,22.83
2019-01-30T22:47:57.567Z,21.20
2019-01-30T22:53:00.249Z,20.60
2019-01-30T22:55:47.878Z,26.43
2019-01-30T23:01:42.287Z,19.40
2019-01-30T23:04:50.648Z,24.37
2019-01-30T23:07:58.939Z,22.27
2019-01-30T23:11:05.934Z,22.27
2019-01-30T23:13:54.442Z,23.50
2019-01-30T23:17:01.410Z,22.70
2019-01-30T23:20:09.764Z,18.57
2019-01-30T23:23:18.123Z,25.37
2019-01-30T23:26:26.410Z,28.37
2019-01-30T23:29:34.768Z,25.20
2019-01-30T23:32:43.063Z,25.23
2019-01-30T23:35:51.423Z,24.27
2019-01-30T23:38:58.441Z,23.47
2019-01-30T23:42:05.424Z,20.97
2019-01-30T23:45:13.718Z,26.33
2019-01-30T23:48:22.008Z,25.33
2019-01-30T23:51:28.982Z,23.07
2019-01-30T23:54:35.964Z,29.27
2019-01-30T23:57:42.926Z,24.97
